TIFM7: Elk River, Tiff City, MO

Data processed at Wed May 22 2019 23:50


All information presented herein is the property of the government of the United States of America and may be revised or deleted at any time without prior notice.
Dissemination of this information without the expressed written consent of the Public Affairs Office, Tulsa District U.S. Army Corps of Engineers is strictly prohibited.
These data are gathered electronically and, as presented, have not undergone any form of quality control. These data are not guaranteed to be valid or correct.
Go to home page.
Go to station list.
Go to home page.

Upstream stations:

Downstream station:
Previous Day
Next Day
Current Day
    
SHEF ID:       TIFM7     Elk River near Tiff City, Mo
STATION TYPE:  
Regulating: Stage =    15.00, Flow =    19034

               PRECIP     STAGE  STAGE(2)  RIV-FLOW   VOLTAGE  BAT-LOAD
                   in        ft        ft       cfs      volt      volt
              Ccp-Rev   Ccp-Rev   Ccp-Rev   Ccp-Rev   Ccp-Rev   Ccp-Rev
(US/Central)
05/22 00:00      0.00     17.29     17.90     26128     12.70      ----
05/22 01:00      0.00     17.07     17.64     25393     12.70      ----
05/22 02:00      0.00     16.91     17.56     24867     12.70      ----
05/22 03:00      0.00     16.72     17.33     24249     12.70      ----
05/22 04:00      0.00     16.64     17.27     23991     12.70      ----
05/22 05:00      0.00     16.49     17.06     23512     12.70      ----
05/22 06:00      0.00     16.38     17.09     23164     12.70      ----
05/22 07:00      0.00     16.29     16.81     22881     12.80      ----
05/22 08:00      0.00     16.03     16.68     22075     12.90      ----
05/22 09:00      0.00     15.87     16.30     21587     13.10      ----
05/22 10:00      0.00     15.48     15.83     20421     13.30      ----
05/22 11:00      0.00     14.96     15.29     18921     13.50      ----
05/22 12:00      0.00     14.41     14.71     17401     13.70      ----
05/22 13:00      0.00     13.86     14.07     15949     13.60      ----
05/22 14:00      0.00     13.34     13.57     14639     14.10      ----
05/22 15:00      0.00     12.77     13.05     13273     14.10      ----
05/22 16:00      0.00     12.38     12.56     12379     13.50      ----
05/22 17:00      0.00     12.02     12.15     11584     13.50      ----
05/22 18:00      0.00     11.70     11.84     10901     13.00      ----
05/22 19:00      0.00     11.46     11.56     10403     13.00      ----
05/22 20:00      0.00     11.23     11.30      9938     13.00      ----
05/22 21:00      0.00     11.02     11.13      9524     12.90      ----
05/22 22:00      0.29     10.86     10.93      9214     12.90      ----
05/22 23:00      0.71     10.78     10.90      9061     12.90      ----